createdAt,value
2022-09-16T00:01:55.958Z,1.07
2022-09-16T00:04:22.708Z,0.93
2022-09-16T00:06:49.384Z,1.40
2022-09-16T00:09:16.181Z,1.60
2022-09-16T00:11:43.467Z,1.00
2022-09-16T00:14:10.409Z,1.13
2022-09-16T00:16:37.404Z,1.17
2022-09-16T00:19:04.502Z,1.10
2022-09-16T00:21:31.902Z,1.20
2022-09-16T00:23:58.887Z,1.53
2022-09-16T00:26:26.113Z,1.13
2022-09-16T00:28:53.220Z,1.17
2022-09-16T00:31:20.141Z,1.10
2022-09-16T00:33:47.171Z,1.10
2022-09-16T00:36:17.613Z,1.07
2022-09-16T00:38:44.934Z,1.40
2022-09-16T00:41:20.208Z,1.37
2022-09-16T00:43:54.133Z,1.20
2022-09-16T00:46:26.613Z,1.30
2022-09-16T00:48:53.909Z,1.27
2022-09-16T00:51:21.300Z,1.30
2022-09-16T00:53:56.855Z,1.20
2022-09-16T00:56:27.062Z,1.00
2022-09-16T00:59:03.280Z,1.03
2022-09-16T01:01:31.635Z,1.53
2022-09-16T01:04:14.886Z,1.40
2022-09-16T01:06:42.282Z,1.13
2022-09-16T01:09:09.335Z,1.30
2022-09-16T01:11:36.125Z,0.80
2022-09-16T01:14:22.978Z,1.07
2022-09-16T01:17:02.949Z,1.23
2022-09-16T01:19:42.934Z,1.00
2022-09-16T01:22:20.927Z,0.90
2022-09-16T01:24:59.530Z,1.00
2022-09-16T01:27:38.855Z,1.63
2022-09-16T01:30:08.666Z,0.83
2022-09-16T01:33:08.641Z,1.20
2022-09-16T01:35:56.949Z,1.10
2022-09-16T01:38:46.591Z,1.13
2022-09-16T01:41:19.652Z,1.17
2022-09-16T01:44:16.400Z,0.90
2022-09-16T01:47:01.954Z,1.20
2022-09-16T01:49:46.022Z,1.07
2022-09-16T01:52:20.542Z,0.90
2022-09-16T01:55:31.063Z,1.10
2022-09-16T01:58:23.580Z,0.80
2022-09-16T02:00:55.894Z,1.00
2022-09-16T02:03:30.557Z,1.10
2022-09-16T02:06:02.506Z,1.23
2022-09-16T02:08:36.450Z,1.30
2022-09-16T02:11:06.419Z,1.10
2022-09-16T02:13:58.331Z,1.43
2022-09-16T02:16:56.832Z,1.10
2022-09-16T02:19:29.778Z,1.20
2022-09-16T02:21:58.799Z,1.20
2022-09-16T02:24:27.594Z,1.27
2022-09-16T02:27:02.890Z,1.10
2022-09-16T02:29:37.004Z,1.20
2022-09-16T02:32:08.813Z,0.90
2022-09-16T02:34:46.492Z,1.13
2022-09-16T02:37:29.583Z,1.23
2022-09-16T02:40:02.175Z,0.90
2022-09-16T02:42:29.961Z,1.10
2022-09-16T02:44:58.035Z,1.30
2022-09-16T02:47:36.340Z,1.20
2022-09-16T02:50:35.404Z,1.93
2022-09-16T02:53:09.529Z,1.27
2022-09-16T02:55:46.389Z,1.60
2022-09-16T02:58:13.269Z,1.60
2022-09-16T03:00:44.565Z,1.87
2022-09-16T03:03:11.394Z,1.90
2022-09-16T03:06:08.921Z,1.87
2022-09-16T03:08:37.049Z,1.90
2022-09-16T03:11:21.143Z,1.70
2022-09-16T03:13:55.067Z,1.93
2022-09-16T03:16:34.699Z,1.87
2022-09-16T03:19:56.616Z,1.83
2022-09-16T03:22:41.728Z,2.07
2022-09-16T03:25:22.559Z,2.23
2022-09-16T03:28:00.549Z,1.83
2022-09-16T03:30:30.242Z,1.90
2022-09-16T03:33:03.568Z,1.70
2022-09-16T03:35:39.349Z,1.73
2022-09-16T03:38:08.223Z,2.10
2022-09-16T03:40:35.566Z,1.97
2022-09-16T03:43:11.807Z,1.93
2022-09-16T03:45:40.749Z,1.80
2022-09-16T03:48:07.791Z,1.37
2022-09-16T03:50:34.877Z,1.63
2022-09-16T03:53:01.832Z,1.90
2022-09-16T03:55:28.929Z,1.43
2022-09-16T03:57:55.838Z,1.80
2022-09-16T04:00:23.390Z,1.30
2022-09-16T04:02:50.358Z,1.40
2022-09-16T04:05:17.471Z,1.60
2022-09-16T04:07:44.218Z,1.60
2022-09-16T04:10:12.454Z,1.70
2022-09-16T04:12:39.300Z,1.67
2022-09-16T04:15:07.033Z,1.63
2022-09-16T04:17:34.544Z,1.40
2022-09-16T04:20:01.547Z,1.33
2022-09-16T04:22:30.584Z,1.40
2022-09-16T04:24:58.006Z,1.60
2022-09-16T04:27:25.211Z,1.40
2022-09-16T04:29:51.950Z,1.40
2022-09-16T04:32:18.838Z,1.73
2022-09-16T04:34:46.209Z,1.43
2022-09-16T04:37:12.944Z,1.73
2022-09-16T04:39:39.757Z,1.67
2022-09-16T04:42:06.970Z,1.70
2022-09-16T04:44:33.752Z,1.33
2022-09-16T04:47:00.935Z,1.77
2022-09-16T04:49:27.668Z,1.90
2022-09-16T04:51:54.454Z,1.70
2022-09-16T04:54:21.408Z,2.10
2022-09-16T04:56:48.183Z,2.10
2022-09-16T04:59:14.935Z,2.00
2022-09-16T05:01:42.067Z,2.20
2022-09-16T05:04:10.550Z,1.90
2022-09-16T05:06:40.626Z,2.40
2022-09-16T05:09:07.956Z,2.27
2022-09-16T05:11:37.460Z,2.30
2022-09-16T05:14:10.398Z,2.70
2022-09-16T05:16:37.333Z,3.00
2022-09-16T05:19:05.109Z,2.73
2022-09-16T05:21:35.333Z,3.30
2022-09-16T05:24:03.838Z,3.00
2022-09-16T05:26:32.558Z,2.83
2022-09-16T05:29:04.506Z,2.97
2022-09-16T05:31:33.888Z,3.03
2022-09-16T05:34:06.889Z,3.47
2022-09-16T05:36:37.733Z,3.37
2022-09-16T05:39:22.177Z,3.13
2022-09-16T05:41:53.175Z,3.03
2022-09-16T05:44:20.048Z,3.10
2022-09-16T05:46:46.759Z,3.30
2022-09-16T05:49:13.560Z,3.30
2022-09-16T05:51:41.984Z,3.30
2022-09-16T05:54:08.974Z,3.47
2022-09-16T05:56:35.912Z,3.43
2022-09-16T05:59:02.772Z,3.60
2022-09-16T06:01:32.385Z,3.97
2022-09-16T06:04:02.503Z,4.07
2022-09-16T06:06:37.998Z,3.40
2022-09-16T06:09:17.878Z,3.30
2022-09-16T06:11:48.610Z,2.97
2022-09-16T06:14:16.594Z,3.50
2022-09-16T06:16:43.678Z,3.33
2022-09-16T06:19:13.595Z,3.37
2022-09-16T06:21:41.835Z,3.47
2022-09-16T06:24:08.858Z,2.97
2022-09-16T06:26:37.897Z,2.50
2022-09-16T06:29:06.227Z,2.33
2022-09-16T06:31:34.104Z,2.80
2022-09-16T06:34:01.009Z,2.50
2022-09-16T06:36:33.901Z,2.60
2022-09-16T06:39:01.096Z,2.50
2022-09-16T06:41:27.859Z,2.90
2022-09-16T06:43:54.689Z,2.60
2022-09-16T06:46:24.222Z,5.70
2022-09-16T06:48:53.399Z,2.63
2022-09-16T06:51:23.605Z,2.63
2022-09-16T06:53:51.476Z,2.33
2022-09-16T06:56:20.836Z,2.60
2022-09-16T06:58:50.327Z,2.53
2022-09-16T07:01:22.258Z,2.13
2022-09-16T07:03:51.810Z,2.10
2022-09-16T07:06:20.349Z,2.13
2022-09-16T07:08:47.952Z,1.90
2022-09-16T07:11:20.302Z,1.63
2022-09-16T07:13:48.466Z,1.40
2022-09-16T07:16:18.145Z,1.60
2022-09-16T07:18:46.289Z,1.70
2022-09-16T07:21:16.602Z,2.00
2022-09-16T07:23:44.343Z,1.90
2022-09-16T07:26:19.942Z,1.60
2022-09-16T07:28:48.672Z,1.40
2022-09-16T07:31:18.626Z,1.70
2022-09-16T07:33:48.092Z,1.53
2022-09-16T07:36:20.392Z,1.30
2022-09-16T07:38:47.959Z,1.10
2022-09-16T07:41:17.772Z,1.30
2022-09-16T07:43:45.522Z,1.40
2022-09-16T07:46:14.466Z,1.27
2022-09-16T07:48:41.497Z,1.20
2022-09-16T07:51:14.291Z,0.90
2022-09-16T07:53:41.597Z,1.17
2022-09-16T07:56:11.437Z,1.50
2022-09-16T07:58:38.551Z,0.97
2022-09-16T08:01:07.887Z,1.17
2022-09-16T08:03:37.567Z,1.00
2022-09-16T08:06:08.692Z,1.30
2022-09-16T08:08:35.546Z,0.87
2022-09-16T08:11:03.558Z,1.00
2022-09-16T08:13:31.890Z,1.10
2022-09-16T08:16:07.590Z,0.70
2022-09-16T08:18:34.934Z,1.30
2022-09-16T08:21:11.681Z,0.80
2022-09-16T08:23:39.463Z,0.90
2022-09-16T08:26:08.536Z,1.20
2022-09-16T08:28:45.261Z,1.20
2022-09-16T08:31:22.393Z,1.07
2022-09-16T08:33:49.266Z,1.00
2022-09-16T08:36:24.550Z,0.93
2022-09-16T08:38:54.740Z,1.00
2022-09-16T08:41:21.615Z,1.20
2022-09-16T08:44:03.428Z,1.13
2022-09-16T08:46:55.156Z,1.00
2022-09-16T08:49:46.513Z,1.37
2022-09-16T08:52:29.715Z,1.10
2022-09-16T08:55:10.340Z,1.20
2022-09-16T08:57:42.322Z,1.23
2022-09-16T09:00:18.114Z,1.50
2022-09-16T09:02:56.842Z,1.20
2022-09-16T09:05:44.812Z,0.97
2022-09-16T09:08:41.975Z,1.50
2022-09-16T09:11:24.496Z,1.00
2022-09-16T09:14:15.271Z,1.00
2022-09-16T09:16:58.117Z,1.20
2022-09-16T09:19:40.315Z,1.20
2022-09-16T09:22:22.303Z,1.30
2022-09-16T09:25:07.963Z,1.20
2022-09-16T09:27:49.593Z,1.50
2022-09-16T09:30:27.699Z,1.70
2022-09-16T09:33:34.117Z,1.10
2022-09-16T09:36:23.136Z,1.07
2022-09-16T09:39:20.913Z,0.90
2022-09-16T09:42:00.486Z,2.00
2022-09-16T09:44:36.585Z,1.30
2022-09-16T09:47:12.480Z,1.43
2022-09-16T09:49:50.527Z,1.00
2022-09-16T09:52:39.319Z,1.20
2022-09-16T09:55:21.652Z,1.20
2022-09-16T09:58:08.909Z,0.87
2022-09-16T10:00:35.753Z,1.03
2022-09-16T10:03:07.931Z,1.10
2022-09-16T10:05:34.864Z,1.40
2022-09-16T10:08:32.375Z,1.30
2022-09-16T10:11:02.150Z,1.10
2022-09-16T10:13:31.191Z,1.40
2022-09-16T10:16:13.254Z,1.20
2022-09-16T10:18:40.353Z,1.50
2022-09-16T10:21:13.334Z,1.47
2022-09-16T10:23:40.693Z,1.20
2022-09-16T10:26:24.527Z,1.30
2022-09-16T10:29:01.995Z,1.63
2022-09-16T10:31:36.730Z,1.20
2022-09-16T10:34:12.339Z,1.60
2022-09-16T10:36:39.151Z,1.27
2022-09-16T10:39:06.225Z,1.20
2022-09-16T10:41:41.817Z,1.40
2022-09-16T10:44:25.936Z,1.07
2022-09-16T10:46:54.568Z,1.40
2022-09-16T10:49:28.859Z,1.10
2022-09-16T10:51:55.759Z,1.77
2022-09-16T10:54:28.296Z,1.60
2022-09-16T10:56:55.335Z,1.13
2022-09-16T10:59:22.359Z,1.63
2022-09-16T11:02:34.509Z,0.97
2022-09-16T11:05:11.997Z,1.07
2022-09-16T11:08:14.513Z,0.70
2022-09-16T11:10:48.810Z,1.37
2022-09-16T11:13:24.598Z,1.37
2022-09-16T11:16:17.602Z,1.47
2022-09-16T11:18:54.292Z,1.20
2022-09-16T11:21:41.059Z,1.13
2022-09-16T11:24:23.853Z,0.97
2022-09-16T11:27:24.472Z,1.00
2022-09-16T11:30:10.283Z,1.37
2022-09-16T11:35:46.874Z,1.33
2022-09-16T11:38:17.158Z,1.30
2022-09-16T11:40:57.832Z,1.60
2022-09-16T11:43:30.622Z,0.90
2022-09-16T11:46:20.487Z,1.00
2022-09-16T11:48:56.253Z,1.20
2022-09-16T11:51:53.475Z,0.90
2022-09-16T11:54:45.778Z,1.30
2022-09-16T11:57:24.595Z,1.17
2022-09-16T12:00:02.928Z,1.37
2022-09-16T12:02:41.236Z,1.20
2022-09-16T12:05:26.575Z,1.30
2022-09-16T12:08:22.740Z,0.80
2022-09-16T12:11:03.534Z,0.80
2022-09-16T12:13:38.908Z,0.80
2022-09-16T12:16:17.440Z,0.60
2022-09-16T12:18:53.095Z,0.50
2022-09-16T12:21:28.469Z,0.77
2022-09-16T12:24:06.621Z,0.50
2022-09-16T12:27:21.221Z,0.73
2022-09-16T12:30:14.400Z,1.00
2022-09-16T12:33:06.316Z,0.70
2022-09-16T12:36:21.722Z,0.70
2022-09-16T12:38:51.065Z,0.70
2022-09-16T12:41:29.951Z,0.63
2022-09-16T12:44:35.192Z,1.50
2022-09-16T12:48:03.952Z,1.10
2022-09-16T12:50:48.113Z,1.10
2022-09-16T12:53:24.124Z,0.73
2022-09-16T12:56:14.841Z,0.80
2022-09-16T12:58:44.508Z,0.70
2022-09-16T13:01:30.118Z,0.80
2022-09-16T13:04:02.070Z,0.77
2022-09-16T13:06:32.519Z,0.90
2022-09-16T13:09:24.541Z,0.80
2022-09-16T13:14:51.894Z,0.70
2022-09-16T13:17:30.748Z,1.10
2022-09-16T13:20:20.108Z,0.70
2022-09-16T13:23:04.388Z,0.97
2022-09-16T13:25:48.883Z,1.20
2022-09-16T13:28:40.813Z,0.80
2022-09-16T13:31:17.671Z,1.00
2022-09-16T13:34:03.051Z,0.90
2022-09-16T13:36:32.756Z,1.00
2022-09-16T13:39:10.947Z,0.93
2022-09-16T13:41:44.123Z,1.00
2022-09-16T13:44:39.270Z,1.20
2022-09-16T13:47:14.865Z,1.20
2022-09-16T13:49:54.655Z,1.00
2022-09-16T13:52:27.944Z,1.27
2022-09-16T13:55:12.740Z,1.00
2022-09-16T13:58:02.657Z,0.83
2022-09-16T14:00:52.266Z,1.10
2022-09-16T14:03:46.140Z,0.80
2022-09-16T14:06:31.644Z,1.00
2022-09-16T14:09:06.667Z,0.87
2022-09-16T14:11:39.233Z,1.17
2022-09-16T14:14:45.771Z,1.20
2022-09-16T14:17:22.114Z,1.20
2022-09-16T14:19:52.770Z,1.30
2022-09-16T14:22:23.107Z,1.07
2022-09-16T14:24:56.571Z,1.20
2022-09-16T14:27:36.531Z,1.07
2022-09-16T14:30:14.674Z,1.00
2022-09-16T14:32:41.832Z,1.37
2022-09-16T14:35:27.083Z,1.10
2022-09-16T14:38:04.748Z,1.73
2022-09-16T14:40:31.638Z,1.50
2022-09-16T14:43:04.480Z,1.60
2022-09-16T14:45:32.804Z,1.10
2022-09-16T14:48:02.625Z,0.93
2022-09-16T14:50:33.329Z,1.30
2022-09-16T14:53:06.097Z,1.40
2022-09-16T14:55:37.552Z,1.30
2022-09-16T14:58:04.578Z,1.03
2022-09-16T15:00:47.446Z,1.63
2022-09-16T15:03:24.041Z,1.60
2022-09-16T15:05:53.030Z,1.43
2022-09-16T15:08:27.901Z,0.93
2022-09-16T15:10:58.707Z,1.00
2022-09-16T15:13:34.142Z,1.10
2022-09-16T15:16:08.681Z,1.33
2022-09-16T15:18:42.211Z,1.40
2022-09-16T15:21:22.308Z,2.37
2022-09-16T15:23:53.130Z,1.10
2022-09-16T15:26:26.139Z,0.90
2022-09-16T15:29:05.930Z,0.60
2022-09-16T15:31:40.686Z,1.00
2022-09-16T15:34:21.257Z,0.60
2022-09-16T15:37:00.146Z,0.63
2022-09-16T15:39:35.977Z,1.07
2022-09-16T15:42:16.305Z,0.70
2022-09-16T15:44:53.327Z,0.63
2022-09-16T15:47:34.409Z,0.80
2022-09-16T15:50:16.733Z,0.90
2022-09-16T15:52:55.638Z,1.13
2022-09-16T15:55:50.522Z,1.10
2022-09-16T15:58:20.296Z,0.90
2022-09-16T16:00:57.282Z,0.70
2022-09-16T16:03:24.473Z,1.00
2022-09-16T16:05:52.612Z,1.07
2022-09-16T16:08:37.599Z,1.20
2022-09-16T16:11:15.292Z,1.00
2022-09-16T16:13:42.723Z,1.13
2022-09-16T16:16:10.810Z,1.13
2022-09-16T16:18:38.531Z,1.30
2022-09-16T16:21:08.640Z,1.17
2022-09-16T16:23:36.542Z,1.00
2022-09-16T16:26:05.752Z,1.57
2022-09-16T16:28:33.883Z,0.80
2022-09-16T16:31:12.083Z,1.07
2022-09-16T16:33:44.531Z,1.10
2022-09-16T16:36:15.202Z,4.17
2022-09-16T16:38:42.442Z,2.13
2022-09-16T16:41:10.657Z,0.93
2022-09-16T16:43:38.049Z,3.20
2022-09-16T16:46:05.144Z,2.83
2022-09-16T16:48:31.985Z,1.47
2022-09-16T16:51:04.984Z,1.20
2022-09-16T16:53:32.415Z,2.47
2022-09-16T16:56:15.663Z,1.30
2022-09-16T16:58:45.706Z,2.33
2022-09-16T17:01:18.462Z,1.60
2022-09-16T17:03:47.625Z,1.43
2022-09-16T17:06:14.417Z,1.60
2022-09-16T17:08:41.221Z,1.17
2022-09-16T17:11:10.364Z,1.00
2022-09-16T17:13:39.107Z,1.70
2022-09-16T17:16:06.541Z,1.53
2022-09-16T17:18:38.303Z,1.73
2022-09-16T17:21:26.579Z,1.90
2022-09-16T17:23:54.060Z,1.40
2022-09-16T17:26:21.562Z,1.63
2022-09-16T17:28:50.947Z,1.73
2022-09-16T17:31:25.804Z,1.03
2022-09-16T17:33:57.438Z,1.97
2022-09-16T17:36:26.310Z,2.43
2022-09-16T17:39:03.679Z,1.60
2022-09-16T17:41:31.455Z,1.67
2022-09-16T17:43:59.809Z,3.07
2022-09-16T17:46:27.413Z,2.30
2022-09-16T17:49:04.236Z,2.37
2022-09-16T17:51:32.346Z,1.60
2022-09-16T17:53:59.496Z,1.80
2022-09-16T17:56:26.611Z,1.90
2022-09-16T17:58:54.347Z,2.50
2022-09-16T18:01:23.387Z,1.77
2022-09-16T18:03:51.949Z,2.40
2022-09-16T18:06:35.851Z,1.93
2022-09-16T18:09:07.298Z,2.17
2022-09-16T18:11:35.472Z,2.90
2022-09-16T18:14:04.132Z,2.77
2022-09-16T18:16:31.760Z,1.80
2022-09-16T18:19:01.099Z,2.03
2022-09-16T18:21:30.274Z,1.97
2022-09-16T18:24:02.625Z,2.37
2022-09-16T18:26:30.751Z,2.10
2022-09-16T18:29:09.575Z,2.87
2022-09-16T18:31:37.674Z,2.70
2022-09-16T18:34:04.518Z,2.30
2022-09-16T18:36:32.781Z,2.97
2022-09-16T18:38:59.890Z,3.07
2022-09-16T18:41:29.335Z,2.90
2022-09-16T18:44:01.795Z,4.43
2022-09-16T18:46:30.901Z,2.93
2022-09-16T18:48:59.032Z,1.97
2022-09-16T18:51:38.324Z,2.20
2022-09-16T18:54:18.384Z,2.70
2022-09-16T18:56:45.663Z,1.80
2022-09-16T18:59:21.416Z,2.50
2022-09-16T19:01:49.371Z,2.07
2022-09-16T19:04:20.097Z,2.60
2022-09-16T19:06:49.694Z,2.37
2022-09-16T19:09:18.892Z,2.30
2022-09-16T19:11:45.734Z,1.90
2022-09-16T19:14:13.956Z,2.30
2022-09-16T19:16:45.375Z,2.30
2022-09-16T19:19:14.649Z,1.80
2022-09-16T19:21:42.542Z,1.73
2022-09-16T19:24:15.291Z,1.37
2022-09-16T19:26:43.432Z,1.20
2022-09-16T19:29:11.555Z,1.07
2022-09-16T19:31:41.155Z,2.03
2022-09-16T19:34:08.531Z,1.20
2022-09-16T19:36:36.599Z,1.37
2022-09-16T19:39:05.351Z,1.10
2022-09-16T19:41:35.073Z,0.97
2022-09-16T19:44:04.428Z,1.13
2022-09-16T19:46:35.319Z,1.27
2022-09-16T19:49:02.408Z,1.00
2022-09-16T19:51:29.258Z,1.50
2022-09-16T19:53:56.426Z,0.93
2022-09-16T19:56:25.937Z,1.23
2022-09-16T19:58:54.320Z,1.33
2022-09-16T20:01:24.036Z,1.27
2022-09-16T20:03:52.029Z,1.37
2022-09-16T20:06:24.159Z,1.50
2022-09-16T20:08:56.502Z,1.33
2022-09-16T20:11:25.340Z,2.10
2022-09-16T20:13:57.657Z,1.30
2022-09-16T20:16:27.385Z,1.40
2022-09-16T20:18:54.769Z,1.40
2022-09-16T20:21:24.408Z,1.57
2022-09-16T20:23:52.728Z,1.20
2022-09-16T20:26:20.747Z,1.33
2022-09-16T20:28:52.541Z,1.53
2022-09-16T20:31:31.385Z,1.50
2022-09-16T20:33:58.960Z,1.10
2022-09-16T20:36:30.421Z,1.53
2022-09-16T20:38:59.680Z,2.00
2022-09-16T20:41:29.520Z,1.80
2022-09-16T20:43:56.831Z,1.47
2022-09-16T20:46:26.031Z,1.67
2022-09-16T20:48:58.047Z,2.00
2022-09-16T20:51:27.258Z,1.83
2022-09-16T20:54:02.613Z,1.30
2022-09-16T20:56:37.965Z,1.20
2022-09-16T20:59:10.098Z,1.00
2022-09-16T21:01:38.353Z,1.30
2022-09-16T21:04:07.874Z,1.10
2022-09-16T21:06:36.134Z,1.10
2022-09-16T21:09:05.824Z,1.20
2022-09-16T21:11:33.308Z,1.87
2022-09-16T21:14:06.591Z,2.00
2022-09-16T21:16:35.784Z,1.90
2022-09-16T21:19:04.290Z,2.40
2022-09-16T21:21:32.054Z,1.70
2022-09-16T21:24:01.354Z,1.47
2022-09-16T21:26:33.666Z,1.73
2022-09-16T21:29:04.037Z,1.40
2022-09-16T21:31:37.294Z,1.90
2022-09-16T21:34:06.701Z,1.60
2022-09-16T21:36:35.381Z,1.33
2022-09-16T21:39:02.391Z,1.57
2022-09-16T21:41:30.119Z,1.10
2022-09-16T21:43:57.714Z,1.03
2022-09-16T21:46:30.382Z,1.17
2022-09-16T21:49:00.109Z,1.17
2022-09-16T21:51:28.349Z,1.40
2022-09-16T21:53:55.705Z,1.40
2022-09-16T21:56:23.666Z,1.30
2022-09-16T21:58:54.339Z,1.33
2022-09-16T22:01:26.750Z,1.20
2022-09-16T22:04:10.846Z,1.20
2022-09-16T22:06:37.600Z,1.40
2022-09-16T22:09:07.796Z,1.23
2022-09-16T22:11:36.634Z,1.37
2022-09-16T22:14:04.458Z,1.20
2022-09-16T22:16:33.471Z,0.80
2022-09-16T22:19:03.885Z,1.20
2022-09-16T22:21:33.394Z,1.03
2022-09-16T22:24:01.275Z,0.90
2022-09-16T22:26:30.127Z,1.07
2022-09-16T22:28:57.458Z,1.17
2022-09-16T22:31:27.083Z,1.20
2022-09-16T22:33:55.581Z,0.83
2022-09-16T22:36:25.201Z,1.23
2022-09-16T22:38:54.351Z,1.23
2022-09-16T22:41:22.233Z,1.00
2022-09-16T22:43:50.620Z,1.10
2022-09-16T22:46:29.171Z,1.13
2022-09-16T22:48:57.330Z,1.27
2022-09-16T22:51:24.719Z,1.00
2022-09-16T22:53:51.773Z,1.27
2022-09-16T22:56:21.135Z,1.20
2022-09-16T22:58:53.212Z,1.10
2022-09-16T23:01:23.354Z,1.60
2022-09-16T23:03:57.420Z,1.30
2022-09-16T23:06:26.436Z,1.10
2022-09-16T23:08:53.774Z,1.50
2022-09-16T23:11:28.707Z,0.90
2022-09-16T23:13:56.146Z,1.00
2022-09-16T23:16:26.983Z,1.20
2022-09-16T23:18:55.916Z,1.43
2022-09-16T23:21:23.460Z,1.17
2022-09-16T23:23:53.208Z,1.43
2022-09-16T23:26:22.453Z,1.30
2022-09-16T23:28:54.476Z,1.37
2022-09-16T23:31:24.774Z,1.17
2022-09-16T23:33:52.622Z,1.40
2022-09-16T23:36:20.183Z,1.63
2022-09-16T23:38:47.996Z,1.93
2022-09-16T23:41:17.646Z,1.77
2022-09-16T23:43:44.630Z,2.20
2022-09-16T23:46:14.240Z,2.20
2022-09-16T23:48:43.246Z,2.00
2022-09-16T23:51:10.926Z,1.97
2022-09-16T23:53:38.840Z,2.23
2022-09-16T23:56:13.852Z,1.73
2022-09-16T23:58:42.110Z,2.00
